sensor_id;sensor_type;location;lat;lon;timestamp;P1;durP1;ratioP1;P2;durP2;ratioP2
52414;SDS011;38340;52.964;6.086;2023-05-10T00:02:08;20.15;;;13.60;;
52414;SDS011;38340;52.964;6.086;2023-05-10T00:04:34;19.95;;;13.48;;
52414;SDS011;38340;52.964;6.086;2023-05-10T00:07:00;20.15;;;13.10;;
52414;SDS011;38340;52.964;6.086;2023-05-10T00:09:26;23.88;;;14.80;;
52414;SDS011;38340;52.964;6.086;2023-05-10T00:11:52;27.08;;;15.73;;
52414;SDS011;38340;52.964;6.086;2023-05-10T00:14:18;19.98;;;13.63;;
52414;SDS011;38340;52.964;6.086;2023-05-10T00:16:43;20.55;;;13.50;;
52414;SDS011;38340;52.964;6.086;2023-05-10T00:19:09;22.80;;;14.70;;
52414;SDS011;38340;52.964;6.086;2023-05-10T00:21:35;23.25;;;14.75;;
52414;SDS011;38340;52.964;6.086;2023-05-10T00:24:01;25.30;;;14.70;;
52414;SDS011;38340;52.964;6.086;2023-05-10T00:26:27;30.73;;;15.23;;
52414;SDS011;38340;52.964;6.086;2023-05-10T00:28:53;23.50;;;15.15;;
52414;SDS011;38340;52.964;6.086;2023-05-10T00:31:18;25.13;;;15.32;;
52414;SDS011;38340;52.964;6.086;2023-05-10T00:33:44;29.17;;;17.60;;
52414;SDS011;38340;52.964;6.086;2023-05-10T00:36:10;24.73;;;14.85;;
52414;SDS011;38340;52.964;6.086;2023-05-10T00:38:36;19.65;;;14.38;;
52414;SDS011;38340;52.964;6.086;2023-05-10T00:41:02;21.67;;;14.35;;
52414;SDS011;38340;52.964;6.086;2023-05-10T00:43:27;19.85;;;14.05;;
52414;SDS011;38340;52.964;6.086;2023-05-10T00:45:53;24.17;;;15.70;;
52414;SDS011;38340;52.964;6.086;2023-05-10T00:48:19;23.52;;;15.05;;
52414;SDS011;38340;52.964;6.086;2023-05-10T00:50:46;26.42;;;15.98;;
52414;SDS011;38340;52.964;6.086;2023-05-10T00:53:12;18.95;;;14.68;;
52414;SDS011;38340;52.964;6.086;2023-05-10T00:55:37;25.77;;;16.63;;
52414;SDS011;38340;52.964;6.086;2023-05-10T00:58:04;25.05;;;14.90;;
52414;SDS011;38340;52.964;6.086;2023-05-10T01:00:31;23.48;;;15.55;;
52414;SDS011;38340;52.964;6.086;2023-05-10T01:02:58;25.48;;;16.70;;
52414;SDS011;38340;52.964;6.086;2023-05-10T01:05:24;27.13;;;16.88;;
52414;SDS011;38340;52.964;6.086;2023-05-10T01:07:50;23.73;;;15.70;;
52414;SDS011;38340;52.964;6.086;2023-05-10T01:10:16;23.95;;;14.73;;
52414;SDS011;38340;52.964;6.086;2023-05-10T01:12:43;24.05;;;14.73;;
52414;SDS011;38340;52.964;6.086;2023-05-10T01:15:11;21.98;;;14.65;;
52414;SDS011;38340;52.964;6.086;2023-05-10T01:17:39;23.17;;;14.75;;
52414;SDS011;38340;52.964;6.086;2023-05-10T01:20:07;24.90;;;15.63;;
52414;SDS011;38340;52.964;6.086;2023-05-10T01:33:35;18.00;;;13.73;;
52414;SDS011;38340;52.964;6.086;2023-05-10T01:36:26;18.05;;;12.48;;
52414;SDS011;38340;52.964;6.086;2023-05-10T01:38:59;15.85;;;10.75;;
52414;SDS011;38340;52.964;6.086;2023-05-10T01:44:33;15.68;;;11.23;;
52414;SDS011;38340;52.964;6.086;2023-05-10T01:49:39;15.70;;;11.45;;
52414;SDS011;38340;52.964;6.086;2023-05-10T01:52:10;17.02;;;11.73;;
52414;SDS011;38340;52.964;6.086;2023-05-10T01:54:41;17.08;;;11.88;;
52414;SDS011;38340;52.964;6.086;2023-05-10T01:57:12;17.15;;;11.45;;
52414;SDS011;38340;52.964;6.086;2023-05-10T01:59:39;17.77;;;12.02;;
52414;SDS011;38340;52.964;6.086;2023-05-10T02:02:07;17.90;;;11.43;;
52414;SDS011;38340;52.964;6.086;2023-05-10T02:04:37;17.00;;;12.07;;
52414;SDS011;38340;52.964;6.086;2023-05-10T02:07:05;17.85;;;12.18;;
52414;SDS011;38340;52.964;6.086;2023-05-10T02:09:33;19.33;;;13.13;;
52414;SDS011;38340;52.964;6.086;2023-05-10T02:12:01;18.00;;;12.48;;
52414;SDS011;38340;52.964;6.086;2023-05-10T02:14:30;21.67;;;12.57;;
52414;SDS011;38340;52.964;6.086;2023-05-10T02:16:58;17.38;;;12.55;;
52414;SDS011;38340;52.964;6.086;2023-05-10T02:19:26;16.55;;;12.25;;
52414;SDS011;38340;52.964;6.086;2023-05-10T02:21:54;13.43;;;10.27;;
52414;SDS011;38340;52.964;6.086;2023-05-10T02:24:21;18.25;;;11.85;;
52414;SDS011;38340;52.964;6.086;2023-05-10T02:26:49;14.13;;;10.77;;
52414;SDS011;38340;52.964;6.086;2023-05-10T02:29:18;16.27;;;10.13;;
52414;SDS011;38340;52.964;6.086;2023-05-10T02:31:45;14.60;;;10.98;;
52414;SDS011;38340;52.964;6.086;2023-05-10T02:34:11;13.25;;;10.60;;
52414;SDS011;38340;52.964;6.086;2023-05-10T02:36:38;16.55;;;10.50;;
52414;SDS011;38340;52.964;6.086;2023-05-10T02:39:06;13.50;;;11.10;;
52414;SDS011;38340;52.964;6.086;2023-05-10T02:41:37;15.82;;;10.02;;
52414;SDS011;38340;52.964;6.086;2023-05-10T02:44:06;14.88;;;10.40;;
52414;SDS011;38340;52.964;6.086;2023-05-10T02:46:33;13.18;;;10.32;;
52414;SDS011;38340;52.964;6.086;2023-05-10T02:48:59;14.90;;;11.38;;
52414;SDS011;38340;52.964;6.086;2023-05-10T02:51:26;13.63;;;10.52;;
52414;SDS011;38340;52.964;6.086;2023-05-10T02:54:43;13.50;;;11.05;;
52414;SDS011;38340;52.964;6.086;2023-05-10T02:56:56;17.10;;;11.38;;
52414;SDS011;38340;52.964;6.086;2023-05-10T02:59:24;17.00;;;10.98;;
52414;SDS011;38340;52.964;6.086;2023-05-10T03:01:50;12.70;;;10.30;;
52414;SDS011;38340;52.964;6.086;2023-05-10T03:04:16;13.00;;;10.65;;
52414;SDS011;38340;52.964;6.086;2023-05-10T03:06:41;16.83;;;11.13;;
52414;SDS011;38340;52.964;6.086;2023-05-10T03:09:07;17.58;;;10.95;;
52414;SDS011;38340;52.964;6.086;2023-05-10T03:14:34;11.82;;;10.05;;
52414;SDS011;38340;52.964;6.086;2023-05-10T03:17:11;10.70;;;9.40;;
52414;SDS011;38340;52.964;6.086;2023-05-10T03:19:48;11.15;;;9.98;;
52414;SDS011;38340;52.964;6.086;2023-05-10T03:22:24;12.13;;;10.02;;
52414;SDS011;38340;52.964;6.086;2023-05-10T03:24:53;14.10;;;10.57;;
52414;SDS011;38340;52.964;6.086;2023-05-10T03:27:22;13.23;;;11.52;;
52414;SDS011;38340;52.964;6.086;2023-05-10T03:29:50;11.70;;;10.50;;
52414;SDS011;38340;52.964;6.086;2023-05-10T03:32:17;13.27;;;11.00;;
52414;SDS011;38340;52.964;6.086;2023-05-10T03:34:42;12.25;;;10.45;;
52414;SDS011;38340;52.964;6.086;2023-05-10T03:37:08;14.75;;;11.35;;
52414;SDS011;38340;52.964;6.086;2023-05-10T03:39:34;12.38;;;10.68;;
52414;SDS011;38340;52.964;6.086;2023-05-10T03:42:00;13.60;;;11.55;;
52414;SDS011;38340;52.964;6.086;2023-05-10T03:44:26;14.32;;;11.55;;
52414;SDS011;38340;52.964;6.086;2023-05-10T03:46:51;14.05;;;11.80;;
52414;SDS011;38340;52.964;6.086;2023-05-10T03:49:17;20.23;;;11.82;;
52414;SDS011;38340;52.964;6.086;2023-05-10T03:51:43;13.95;;;11.75;;
52414;SDS011;38340;52.964;6.086;2023-05-10T03:54:09;15.23;;;12.05;;
52414;SDS011;38340;52.964;6.086;2023-05-10T03:56:35;16.60;;;11.35;;
52414;SDS011;38340;52.964;6.086;2023-05-10T03:59:01;11.57;;;10.32;;
52414;SDS011;38340;52.964;6.086;2023-05-10T04:01:32;12.85;;;10.88;;
52414;SDS011;38340;52.964;6.086;2023-05-10T04:03:58;11.18;;;10.02;;
52414;SDS011;38340;52.964;6.086;2023-05-10T04:06:24;11.20;;;10.00;;
52414;SDS011;38340;52.964;6.086;2023-05-10T04:08:49;12.25;;;10.80;;
52414;SDS011;38340;52.964;6.086;2023-05-10T04:11:15;13.32;;;9.90;;
52414;SDS011;38340;52.964;6.086;2023-05-10T04:13:41;11.85;;;10.50;;
52414;SDS011;38340;52.964;6.086;2023-05-10T04:16:08;15.50;;;10.52;;
52414;SDS011;38340;52.964;6.086;2023-05-10T04:18:34;11.82;;;10.52;;
52414;SDS011;38340;52.964;6.086;2023-05-10T04:20:59;14.65;;;10.50;;
52414;SDS011;38340;52.964;6.086;2023-05-10T04:23:26;11.20;;;10.10;;
52414;SDS011;38340;52.964;6.086;2023-05-10T04:25:52;11.60;;;10.40;;
52414;SDS011;38340;52.964;6.086;2023-05-10T04:28:24;12.95;;;10.75;;
52414;SDS011;38340;52.964;6.086;2023-05-10T04:30:50;12.35;;;10.68;;
52414;SDS011;38340;52.964;6.086;2023-05-10T04:33:16;12.35;;;10.07;;
52414;SDS011;38340;52.964;6.086;2023-05-10T04:35:42;14.35;;;11.20;;
52414;SDS011;38340;52.964;6.086;2023-05-10T04:38:07;11.43;;;10.23;;
52414;SDS011;38340;52.964;6.086;2023-05-10T04:40:33;11.23;;;9.77;;
52414;SDS011;38340;52.964;6.086;2023-05-10T04:42:59;13.85;;;10.60;;
52414;SDS011;38340;52.964;6.086;2023-05-10T04:45:25;11.65;;;9.68;;
52414;SDS011;38340;52.964;6.086;2023-05-10T04:47:50;13.02;;;11.15;;
52414;SDS011;38340;52.964;6.086;2023-05-10T04:50:16;41.33;;;11.77;;
52414;SDS011;38340;52.964;6.086;2023-05-10T04:52:42;22.63;;;10.65;;
52414;SDS011;38340;52.964;6.086;2023-05-10T04:55:08;96.93;;;17.10;;
52414;SDS011;38340;52.964;6.086;2023-05-10T04:57:34;10.40;;;8.82;;
52414;SDS011;38340;52.964;6.086;2023-05-10T05:00:00;9.68;;;8.68;;
52414;SDS011;38340;52.964;6.086;2023-05-10T05:02:26;10.65;;;8.50;;
52414;SDS011;38340;52.964;6.086;2023-05-10T05:04:52;9.90;;;8.50;;
52414;SDS011;38340;52.964;6.086;2023-05-10T05:07:18;10.70;;;8.82;;
52414;SDS011;38340;52.964;6.086;2023-05-10T05:09:43;9.48;;;8.32;;
52414;SDS011;38340;52.964;6.086;2023-05-10T05:12:09;12.53;;;8.33;;
52414;SDS011;38340;52.964;6.086;2023-05-10T05:14:39;10.43;;;8.40;;
52414;SDS011;38340;52.964;6.086;2023-05-10T05:17:05;10.30;;;9.20;;
52414;SDS011;38340;52.964;6.086;2023-05-10T05:19:31;10.82;;;9.65;;
52414;SDS011;38340;52.964;6.086;2023-05-10T05:21:56;9.88;;;8.63;;
52414;SDS011;38340;52.964;6.086;2023-05-10T05:24:22;12.13;;;8.48;;
52414;SDS011;38340;52.964;6.086;2023-05-10T05:26:48;11.38;;;8.95;;
52414;SDS011;38340;52.964;6.086;2023-05-10T05:29:13;11.60;;;8.85;;
52414;SDS011;38340;52.964;6.086;2023-05-10T05:31:39;10.98;;;8.55;;
52414;SDS011;38340;52.964;6.086;2023-05-10T05:34:05;12.10;;;8.70;;
52414;SDS011;38340;52.964;6.086;2023-05-10T05:36:30;12.10;;;8.63;;
52414;SDS011;38340;52.964;6.086;2023-05-10T05:38:57;8.90;;;7.10;;
52414;SDS011;38340;52.964;6.086;2023-05-10T05:41:22;9.00;;;7.63;;
52414;SDS011;38340;52.964;6.086;2023-05-10T05:43:49;9.93;;;7.40;;
52414;SDS011;38340;52.964;6.086;2023-05-10T05:46:15;8.20;;;6.57;;
52414;SDS011;38340;52.964;6.086;2023-05-10T05:48:40;9.30;;;7.72;;
52414;SDS011;38340;52.964;6.086;2023-05-10T05:51:06;9.98;;;8.05;;
52414;SDS011;38340;52.964;6.086;2023-05-10T05:53:32;11.40;;;7.75;;
52414;SDS011;38340;52.964;6.086;2023-05-10T05:55:58;12.93;;;8.10;;
52414;SDS011;38340;52.964;6.086;2023-05-10T05:58:24;12.82;;;8.95;;
52414;SDS011;38340;52.964;6.086;2023-05-10T06:00:51;11.57;;;8.98;;
52414;SDS011;38340;52.964;6.086;2023-05-10T06:03:17;19.17;;;10.32;;
52414;SDS011;38340;52.964;6.086;2023-05-10T06:05:43;11.40;;;9.05;;
52414;SDS011;38340;52.964;6.086;2023-05-10T06:08:09;15.25;;;9.07;;
52414;SDS011;38340;52.964;6.086;2023-05-10T06:10:35;12.98;;;9.60;;
52414;SDS011;38340;52.964;6.086;2023-05-10T06:13:01;14.32;;;10.38;;
52414;SDS011;38340;52.964;6.086;2023-05-10T06:15:27;12.52;;;9.40;;
52414;SDS011;38340;52.964;6.086;2023-05-10T06:17:53;12.00;;;9.82;;
52414;SDS011;38340;52.964;6.086;2023-05-10T06:20:19;10.95;;;8.90;;
52414;SDS011;38340;52.964;6.086;2023-05-10T06:22:44;15.07;;;10.88;;
52414;SDS011;38340;52.964;6.086;2023-05-10T06:25:10;12.07;;;9.82;;
52414;SDS011;38340;52.964;6.086;2023-05-10T06:27:36;13.05;;;10.07;;
52414;SDS011;38340;52.964;6.086;2023-05-10T06:30:02;12.20;;;9.27;;
52414;SDS011;38340;52.964;6.086;2023-05-10T06:32:28;12.52;;;9.32;;
52414;SDS011;38340;52.964;6.086;2023-05-10T06:34:54;11.98;;;9.25;;
52414;SDS011;38340;52.964;6.086;2023-05-10T06:37:20;13.35;;;9.35;;
52414;SDS011;38340;52.964;6.086;2023-05-10T06:39:45;16.13;;;9.15;;
52414;SDS011;38340;52.964;6.086;2023-05-10T06:42:11;12.05;;;8.15;;
52414;SDS011;38340;52.964;6.086;2023-05-10T06:44:37;13.10;;;8.45;;
52414;SDS011;38340;52.964;6.086;2023-05-10T06:47:02;12.27;;;8.30;;
52414;SDS011;38340;52.964;6.086;2023-05-10T06:49:28;10.82;;;7.93;;
52414;SDS011;38340;52.964;6.086;2023-05-10T06:51:55;12.85;;;8.30;;
52414;SDS011;38340;52.964;6.086;2023-05-10T06:54:21;11.80;;;8.55;;
52414;SDS011;38340;52.964;6.086;2023-05-10T06:56:46;13.43;;;8.80;;
52414;SDS011;38340;52.964;6.086;2023-05-10T06:59:12;9.70;;;8.23;;
52414;SDS011;38340;52.964;6.086;2023-05-10T07:01:38;13.07;;;9.07;;
52414;SDS011;38340;52.964;6.086;2023-05-10T07:04:04;11.98;;;8.85;;
52414;SDS011;38340;52.964;6.086;2023-05-10T07:06:32;11.90;;;8.65;;
52414;SDS011;38340;52.964;6.086;2023-05-10T07:08:58;10.02;;;8.05;;
52414;SDS011;38340;52.964;6.086;2023-05-10T07:11:24;9.93;;;8.48;;
52414;SDS011;38340;52.964;6.086;2023-05-10T07:13:50;14.15;;;8.35;;
52414;SDS011;38340;52.964;6.086;2023-05-10T07:16:15;8.52;;;7.28;;
52414;SDS011;38340;52.964;6.086;2023-05-10T07:18:41;10.65;;;6.88;;
52414;SDS011;38340;52.964;6.086;2023-05-10T07:21:07;8.35;;;6.70;;
52414;SDS011;38340;52.964;6.086;2023-05-10T07:23:32;7.50;;;6.07;;
52414;SDS011;38340;52.964;6.086;2023-05-10T07:25:58;5.93;;;5.32;;
52414;SDS011;38340;52.964;6.086;2023-05-10T07:28:24;7.40;;;5.57;;
52414;SDS011;38340;52.964;6.086;2023-05-10T07:30:50;6.05;;;5.40;;
52414;SDS011;38340;52.964;6.086;2023-05-10T07:33:16;6.45;;;4.95;;
52414;SDS011;38340;52.964;6.086;2023-05-10T07:35:42;7.50;;;5.28;;
52414;SDS011;38340;52.964;6.086;2023-05-10T07:38:08;7.10;;;5.90;;
52414;SDS011;38340;52.964;6.086;2023-05-10T07:40:36;9.05;;;7.32;;
52414;SDS011;38340;52.964;6.086;2023-05-10T07:43:02;16.70;;;8.38;;
52414;SDS011;38340;52.964;6.086;2023-05-10T07:45:28;8.80;;;7.20;;
52414;SDS011;38340;52.964;6.086;2023-05-10T07:47:53;8.00;;;6.90;;
52414;SDS011;38340;52.964;6.086;2023-05-10T07:50:19;8.57;;;6.85;;
52414;SDS011;38340;52.964;6.086;2023-05-10T07:52:46;7.82;;;7.03;;
52414;SDS011;38340;52.964;6.086;2023-05-10T07:55:13;9.50;;;7.45;;
52414;SDS011;38340;52.964;6.086;2023-05-10T07:57:38;8.07;;;6.10;;
52414;SDS011;38340;52.964;6.086;2023-05-10T08:00:05;7.53;;;6.35;;
52414;SDS011;38340;52.964;6.086;2023-05-10T08:02:32;7.57;;;6.45;;
52414;SDS011;38340;52.964;6.086;2023-05-10T08:05:00;7.45;;;6.65;;
52414;SDS011;38340;52.964;6.086;2023-05-10T08:07:25;7.72;;;6.20;;
52414;SDS011;38340;52.964;6.086;2023-05-10T08:09:51;8.43;;;6.00;;
52414;SDS011;38340;52.964;6.086;2023-05-10T08:12:17;9.60;;;5.70;;
52414;SDS011;38340;52.964;6.086;2023-05-10T08:14:42;7.68;;;6.20;;
52414;SDS011;38340;52.964;6.086;2023-05-10T08:17:08;7.10;;;5.97;;
52414;SDS011;38340;52.964;6.086;2023-05-10T08:19:34;7.22;;;5.80;;
52414;SDS011;38340;52.964;6.086;2023-05-10T08:22:00;7.65;;;5.57;;
52414;SDS011;38340;52.964;6.086;2023-05-10T08:24:25;6.75;;;5.75;;
52414;SDS011;38340;52.964;6.086;2023-05-10T08:26:51;8.05;;;6.30;;
52414;SDS011;38340;52.964;6.086;2023-05-10T08:29:17;7.10;;;6.10;;
52414;SDS011;38340;52.964;6.086;2023-05-10T08:31:42;7.03;;;6.15;;
52414;SDS011;38340;52.964;6.086;2023-05-10T08:34:08;6.50;;;5.30;;
52414;SDS011;38340;52.964;6.086;2023-05-10T08:36:34;6.93;;;5.75;;
52414;SDS011;38340;52.964;6.086;2023-05-10T08:39:00;7.68;;;5.93;;
52414;SDS011;38340;52.964;6.086;2023-05-10T08:41:25;6.03;;;5.28;;
52414;SDS011;38340;52.964;6.086;2023-05-10T08:43:54;6.22;;;5.57;;
52414;SDS011;38340;52.964;6.086;2023-05-10T08:46:22;7.00;;;6.10;;
52414;SDS011;38340;52.964;6.086;2023-05-10T08:48:48;10.00;;;6.20;;
52414;SDS011;38340;52.964;6.086;2023-05-10T08:51:22;7.28;;;6.18;;
52414;SDS011;38340;52.964;6.086;2023-05-10T08:56:17;6.47;;;5.68;;
52414;SDS011;38340;52.964;6.086;2023-05-10T08:58:43;7.07;;;5.65;;
52414;SDS011;38340;52.964;6.086;2023-05-10T09:01:09;6.45;;;5.85;;
52414;SDS011;38340;52.964;6.086;2023-05-10T09:03:38;9.23;;;6.07;;
52414;SDS011;38340;52.964;6.086;2023-05-10T09:06:04;6.95;;;6.00;;
52414;SDS011;38340;52.964;6.086;2023-05-10T09:08:30;7.07;;;6.07;;
52414;SDS011;38340;52.964;6.086;2023-05-10T09:10:56;8.85;;;6.53;;
52414;SDS011;38340;52.964;6.086;2023-05-10T09:13:22;7.45;;;6.65;;
52414;SDS011;38340;52.964;6.086;2023-05-10T09:15:49;8.98;;;6.57;;
52414;SDS011;38340;52.964;6.086;2023-05-10T09:18:16;8.15;;;6.70;;
52414;SDS011;38340;52.964;6.086;2023-05-10T09:20:42;7.72;;;5.78;;
52414;SDS011;38340;52.964;6.086;2023-05-10T09:23:07;7.32;;;6.18;;
52414;SDS011;38340;52.964;6.086;2023-05-10T09:25:33;7.32;;;6.63;;
52414;SDS011;38340;52.964;6.086;2023-05-10T09:28:00;7.88;;;6.25;;
52414;SDS011;38340;52.964;6.086;2023-05-10T09:30:26;7.35;;;6.50;;
52414;SDS011;38340;52.964;6.086;2023-05-10T09:32:54;8.25;;;6.97;;
52414;SDS011;38340;52.964;6.086;2023-05-10T09:35:21;6.70;;;6.00;;
52414;SDS011;38340;52.964;6.086;2023-05-10T09:37:49;9.45;;;6.38;;
52414;SDS011;38340;52.964;6.086;2023-05-10T09:40:18;6.25;;;5.65;;
52414;SDS011;38340;52.964;6.086;2023-05-10T09:42:54;7.57;;;6.07;;
52414;SDS011;38340;52.964;6.086;2023-05-10T09:45:20;9.57;;;6.85;;
52414;SDS011;38340;52.964;6.086;2023-05-10T09:47:48;7.93;;;7.22;;
52414;SDS011;38340;52.964;6.086;2023-05-10T09:50:13;8.82;;;7.25;;
52414;SDS011;38340;52.964;6.086;2023-05-10T09:55:16;8.20;;;6.93;;
52414;SDS011;38340;52.964;6.086;2023-05-10T09:57:45;8.45;;;6.40;;
52414;SDS011;38340;52.964;6.086;2023-05-10T10:00:16;7.07;;;6.38;;
52414;SDS011;38340;52.964;6.086;2023-05-10T10:02:46;6.22;;;5.70;;
52414;SDS011;38340;52.964;6.086;2023-05-10T10:05:43;6.68;;;6.07;;
52414;SDS011;38340;52.964;6.086;2023-05-10T10:08:11;7.63;;;6.18;;
52414;SDS011;38340;52.964;6.086;2023-05-10T10:10:38;6.70;;;6.10;;
52414;SDS011;38340;52.964;6.086;2023-05-10T10:13:05;7.38;;;6.63;;
52414;SDS011;38340;52.964;6.086;2023-05-10T10:15:31;6.13;;;5.53;;
52414;SDS011;38340;52.964;6.086;2023-05-10T10:17:58;6.53;;;5.88;;
52414;SDS011;38340;52.964;6.086;2023-05-10T10:20:25;6.72;;;6.13;;
52414;SDS011;38340;52.964;6.086;2023-05-10T10:22:52;6.70;;;6.07;;
52414;SDS011;38340;52.964;6.086;2023-05-10T10:25:18;6.80;;;6.10;;
52414;SDS011;38340;52.964;6.086;2023-05-10T10:27:59;6.90;;;6.22;;
52414;SDS011;38340;52.964;6.086;2023-05-10T10:30:42;7.00;;;6.30;;
52414;SDS011;38340;52.964;6.086;2023-05-10T10:36:15;7.65;;;5.78;;
52414;SDS011;38340;52.964;6.086;2023-05-10T10:41:32;6.53;;;5.93;;
52414;SDS011;38340;52.964;6.086;2023-05-10T10:55:01;7.25;;;6.10;;
52414;SDS011;38340;52.964;6.086;2023-05-10T10:57:54;5.78;;;5.28;;
52414;SDS011;38340;52.964;6.086;2023-05-10T11:02:53;6.18;;;5.57;;
52414;SDS011;38340;52.964;6.086;2023-05-10T11:07:57;6.78;;;5.70;;
52414;SDS011;38340;52.964;6.086;2023-05-10T11:10:24;6.57;;;5.97;;
52414;SDS011;38340;52.964;6.086;2023-05-10T11:13:04;6.55;;;5.60;;
52414;SDS011;38340;52.964;6.086;2023-05-10T11:15:32;7.55;;;6.10;;
52414;SDS011;38340;52.964;6.086;2023-05-10T11:17:59;6.13;;;5.53;;
52414;SDS011;38340;52.964;6.086;2023-05-10T11:20:41;11.20;;;7.72;;
52414;SDS011;38340;52.964;6.086;2023-05-10T11:23:13;9.32;;;8.30;;
52414;SDS011;38340;52.964;6.086;2023-05-10T11:25:43;10.43;;;8.68;;
52414;SDS011;38340;52.964;6.086;2023-05-10T11:28:11;11.77;;;8.63;;
52414;SDS011;38340;52.964;6.086;2023-05-10T11:30:40;13.45;;;10.15;;
52414;SDS011;38340;52.964;6.086;2023-05-10T11:33:07;13.43;;;10.23;;
52414;SDS011;38340;52.964;6.086;2023-05-10T11:35:37;12.05;;;10.00;;
52414;SDS011;38340;52.964;6.086;2023-05-10T11:38:10;15.27;;;10.77;;
52414;SDS011;38340;52.964;6.086;2023-05-10T11:40:37;14.88;;;11.27;;
52414;SDS011;38340;52.964;6.086;2023-05-10T11:43:03;15.30;;;10.65;;
52414;SDS011;38340;52.964;6.086;2023-05-10T11:45:33;14.25;;;10.82;;
52414;SDS011;38340;52.964;6.086;2023-05-10T11:48:00;14.15;;;10.55;;
52414;SDS011;38340;52.964;6.086;2023-05-10T11:50:27;15.63;;;10.07;;
52414;SDS011;38340;52.964;6.086;2023-05-10T11:52:56;12.70;;;9.95;;
52414;SDS011;38340;52.964;6.086;2023-05-10T11:55:23;13.15;;;10.82;;
52414;SDS011;38340;52.964;6.086;2023-05-10T11:57:52;12.90;;;10.93;;
52414;SDS011;38340;52.964;6.086;2023-05-10T12:00:19;13.23;;;10.48;;
52414;SDS011;38340;52.964;6.086;2023-05-10T12:02:45;13.05;;;10.75;;
52414;SDS011;38340;52.964;6.086;2023-05-10T12:05:11;11.73;;;9.75;;
52414;SDS011;38340;52.964;6.086;2023-05-10T12:07:37;15.45;;;10.70;;
52414;SDS011;38340;52.964;6.086;2023-05-10T12:10:09;12.98;;;10.10;;
52414;SDS011;38340;52.964;6.086;2023-05-10T12:12:43;14.63;;;9.38;;
52414;SDS011;38340;52.964;6.086;2023-05-10T12:15:12;13.82;;;10.40;;
52414;SDS011;38340;52.964;6.086;2023-05-10T12:17:43;11.70;;;9.57;;
52414;SDS011;38340;52.964;6.086;2023-05-10T12:25:20;12.98;;;10.27;;
52414;SDS011;38340;52.964;6.086;2023-05-10T12:27:51;12.38;;;9.98;;
52414;SDS011;38340;52.964;6.086;2023-05-10T12:30:24;12.73;;;10.18;;
52414;SDS011;38340;52.964;6.086;2023-05-10T12:32:52;13.13;;;9.82;;
52414;SDS011;38340;52.964;6.086;2023-05-10T12:35:18;12.27;;;10.20;;
52414;SDS011;38340;52.964;6.086;2023-05-10T12:37:47;14.02;;;10.10;;
52414;SDS011;38340;52.964;6.086;2023-05-10T12:40:13;11.73;;;10.23;;
52414;SDS011;38340;52.964;6.086;2023-05-10T12:42:39;12.77;;;10.18;;
52414;SDS011;38340;52.964;6.086;2023-05-10T12:45:05;15.23;;;10.30;;
52414;SDS011;38340;52.964;6.086;2023-05-10T12:47:32;13.40;;;10.75;;
52414;SDS011;38340;52.964;6.086;2023-05-10T12:49:59;11.50;;;9.43;;
52414;SDS011;38340;52.964;6.086;2023-05-10T12:52:26;14.15;;;11.20;;
52414;SDS011;38340;52.964;6.086;2023-05-10T12:54:52;13.93;;;10.32;;
52414;SDS011;38340;52.964;6.086;2023-05-10T12:57:19;12.38;;;9.90;;
52414;SDS011;38340;52.964;6.086;2023-05-10T12:59:45;15.45;;;11.60;;
52414;SDS011;38340;52.964;6.086;2023-05-10T13:02:11;13.48;;;10.57;;
52414;SDS011;38340;52.964;6.086;2023-05-10T13:04:37;13.50;;;11.20;;
52414;SDS011;38340;52.964;6.086;2023-05-10T13:07:07;12.75;;;10.77;;
52414;SDS011;38340;52.964;6.086;2023-05-10T13:09:34;12.63;;;10.32;;
52414;SDS011;38340;52.964;6.086;2023-05-10T13:12:00;11.18;;;9.93;;
52414;SDS011;38340;52.964;6.086;2023-05-10T13:14:26;12.73;;;10.40;;
52414;SDS011;38340;52.964;6.086;2023-05-10T13:16:51;12.82;;;9.23;;
52414;SDS011;38340;52.964;6.086;2023-05-10T13:19:17;11.63;;;9.55;;
52414;SDS011;38340;52.964;6.086;2023-05-10T13:21:43;11.68;;;9.70;;
52414;SDS011;38340;52.964;6.086;2023-05-10T13:24:09;13.52;;;10.00;;
52414;SDS011;38340;52.964;6.086;2023-05-10T13:26:38;11.15;;;9.55;;
52414;SDS011;38340;52.964;6.086;2023-05-10T13:29:07;10.20;;;8.93;;
52414;SDS011;38340;52.964;6.086;2023-05-10T13:31:33;11.75;;;8.85;;
52414;SDS011;38340;52.964;6.086;2023-05-10T13:33:59;10.02;;;8.65;;
52414;SDS011;38340;52.964;6.086;2023-05-10T13:36:25;9.57;;;8.60;;
52414;SDS011;38340;52.964;6.086;2023-05-10T13:38:51;8.32;;;7.40;;
52414;SDS011;38340;52.964;6.086;2023-05-10T13:41:17;10.10;;;8.68;;
52414;SDS011;38340;52.964;6.086;2023-05-10T13:43:42;8.68;;;7.78;;
52414;SDS011;38340;52.964;6.086;2023-05-10T13:46:08;8.40;;;7.57;;
52414;SDS011;38340;52.964;6.086;2023-05-10T13:48:34;9.45;;;7.30;;
52414;SDS011;38340;52.964;6.086;2023-05-10T13:51:02;9.13;;;7.90;;
52414;SDS011;38340;52.964;6.086;2023-05-10T13:53:28;9.50;;;7.80;;
52414;SDS011;38340;52.964;6.086;2023-05-10T13:55:53;9.20;;;7.15;;
52414;SDS011;38340;52.964;6.086;2023-05-10T13:58:19;8.05;;;7.35;;
52414;SDS011;38340;52.964;6.086;2023-05-10T14:00:45;8.07;;;7.07;;
52414;SDS011;38340;52.964;6.086;2023-05-10T14:03:10;8.43;;;7.57;;
52414;SDS011;38340;52.964;6.086;2023-05-10T14:05:36;8.70;;;7.75;;
52414;SDS011;38340;52.964;6.086;2023-05-10T14:08:02;8.80;;;7.65;;
52414;SDS011;38340;52.964;6.086;2023-05-10T14:10:29;8.57;;;7.70;;
52414;SDS011;38340;52.964;6.086;2023-05-10T14:12:55;9.68;;;7.75;;
52414;SDS011;38340;52.964;6.086;2023-05-10T14:15:20;8.77;;;7.90;;
52414;SDS011;38340;52.964;6.086;2023-05-10T14:17:46;10.32;;;7.80;;
52414;SDS011;38340;52.964;6.086;2023-05-10T14:20:12;7.95;;;7.22;;
52414;SDS011;38340;52.964;6.086;2023-05-10T14:22:38;9.55;;;8.55;;
52414;SDS011;38340;52.964;6.086;2023-05-10T14:25:04;8.57;;;7.70;;
52414;SDS011;38340;52.964;6.086;2023-05-10T14:27:30;7.60;;;6.80;;
52414;SDS011;38340;52.964;6.086;2023-05-10T14:29:57;11.40;;;7.03;;
52414;SDS011;38340;52.964;6.086;2023-05-10T14:32:23;7.90;;;7.05;;
52414;SDS011;38340;52.964;6.086;2023-05-10T14:34:48;8.93;;;7.07;;
52414;SDS011;38340;52.964;6.086;2023-05-10T14:37:14;8.35;;;7.35;;
52414;SDS011;38340;52.964;6.086;2023-05-10T14:39:41;10.55;;;8.35;;
52414;SDS011;38340;52.964;6.086;2023-05-10T14:42:07;8.48;;;7.45;;
52414;SDS011;38340;52.964;6.086;2023-05-10T14:44:33;8.32;;;7.07;;
52414;SDS011;38340;52.964;6.086;2023-05-10T14:46:59;8.27;;;6.75;;
52414;SDS011;38340;52.964;6.086;2023-05-10T14:49:25;6.45;;;5.88;;
52414;SDS011;38340;52.964;6.086;2023-05-10T14:51:51;6.65;;;6.03;;
52414;SDS011;38340;52.964;6.086;2023-05-10T14:54:17;7.57;;;6.85;;
52414;SDS011;38340;52.964;6.086;2023-05-10T14:56:43;8.15;;;6.63;;
52414;SDS011;38340;52.964;6.086;2023-05-10T14:59:09;7.78;;;7.00;;
52414;SDS011;38340;52.964;6.086;2023-05-10T15:01:35;11.95;;;8.38;;
52414;SDS011;38340;52.964;6.086;2023-05-10T15:04:03;10.27;;;9.10;;
52414;SDS011;38340;52.964;6.086;2023-05-10T15:06:32;8.65;;;7.60;;
52414;SDS011;38340;52.964;6.086;2023-05-10T15:08:59;9.75;;;8.15;;
52414;SDS011;38340;52.964;6.086;2023-05-10T15:11:25;10.25;;;8.93;;
52414;SDS011;38340;52.964;6.086;2023-05-10T15:13:51;9.20;;;8.20;;
52414;SDS011;38340;52.964;6.086;2023-05-10T15:16:17;10.05;;;9.02;;
52414;SDS011;38340;52.964;6.086;2023-05-10T15:18:43;9.40;;;8.40;;
52414;SDS011;38340;52.964;6.086;2023-05-10T15:21:09;10.73;;;9.38;;
52414;SDS011;38340;52.964;6.086;2023-05-10T15:23:34;10.77;;;8.98;;
52414;SDS011;38340;52.964;6.086;2023-05-10T15:26:00;11.80;;;9.32;;